Time,TemperatureF,DewpointF,PressureIn,WindDirection,WindDirectionDegrees,WindSpeedMPH,WindSpeedGustMPH,Humidity,HourlyPrecipIn,Conditions,Clouds,dailyrainin,SoftwareType,DateUTC
2013-12-30 00:01:00,34.8,33.2,29.36,SSE,165,1.0,4.0,94,0.00,,,0.53,Wunderground v.1.15,2013-12-30 05:01:00,
2013-12-30 00:06:00,34.8,33.2,29.36,WSW,247,1.0,4.0,94,0.00,,,0.00,Wunderground v.1.15,2013-12-30 05:06:00,
2013-12-30 00:11:00,34.8,33.0,29.37,South,184,1.0,4.0,93,0.00,,,0.00,Wunderground v.1.15,2013-12-30 05:11:00,
2013-12-30 00:16:00,34.8,33.0,29.36,SSW,209,2.0,2.0,93,0.00,,,0.00,Wunderground v.1.15,2013-12-30 05:16:00,
2013-12-30 00:21:00,34.7,32.9,29.37,North,9,2.0,4.0,93,0.00,,,0.00,Wunderground v.1.15,2013-12-30 05:21:00,
2013-12-30 00:26:00,34.7,32.9,29.37,West,278,2.0,2.0,93,0.00,,,0.00,Wunderground v.1.15,2013-12-30 05:26:00,
2013-12-30 00:31:00,34.8,32.7,29.37,NE,50,2.0,4.0,92,0.00,,,0.00,Wunderground v.1.15,2013-12-30 05:31:00,
2013-12-30 00:36:00,34.7,32.6,29.36,West,265,2.0,4.0,92,0.00,,,0.00,Wunderground v.1.15,2013-12-30 05:36:00,
2013-12-30 00:41:00,34.8,32.4,29.37,SW,232,3.0,4.0,91,0.00,,,0.00,Wunderground v.1.15,2013-12-30 05:41:00,
2013-12-30 00:46:00,34.8,32.4,29.37,SSW,201,3.0,3.0,91,0.00,,,0.00,Wunderground v.1.15,2013-12-30 05:46:00,
2013-12-30 00:51:00,34.7,32.3,29.37,NNW,346,2.0,4.0,91,0.00,,,0.00,Wunderground v.1.15,2013-12-30 05:51:00,
2013-12-30 00:56:00,34.7,32.3,29.37,SSW,203,1.0,4.0,91,0.00,,,0.01,Wunderground v.1.15,2013-12-30 05:56:00,
2013-12-30 01:01:00,34.7,32.3,29.37,ESE,103,2.0,4.0,91,0.00,,,0.01,Wunderground v.1.15,2013-12-30 06:01:00,
2013-12-30 01:06:00,34.7,32.3,29.38,NE,49,2.0,2.0,91,0.00,,,0.01,Wunderground v.1.15,2013-12-30 06:06:00,
2013-12-30 01:11:00,34.6,32.0,29.38,SW,217,2.0,4.0,90,0.00,,,0.01,Wunderground v.1.15,2013-12-30 06:11:00,
2013-12-30 01:16:00,34.6,32.0,29.38,West,281,2.0,2.0,90,0.00,,,0.01,Wunderground v.1.15,2013-12-30 06:16:00,
2013-12-30 01:21:00,34.6,32.0,29.38,NE,43,2.0,4.0,90,0.00,,,0.01,Wunderground v.1.15,2013-12-30 06:21:00,
2013-12-30 01:26:00,34.5,31.9,29.38,West,279,1.0,1.0,90,0.00,,,0.01,Wunderground v.1.15,2013-12-30 06:26:00,
2013-12-30 01:31:00,34.4,32.0,29.39,East,92,1.0,4.0,91,0.00,,,0.01,Wunderground v.1.15,2013-12-30 06:31:00,
2013-12-30 01:36:00,34.4,32.0,29.39,West,276,1.0,4.0,91,0.00,,,0.01,Wunderground v.1.15,2013-12-30 06:36:00,
2013-12-30 01:41:00,34.3,31.9,29.39,WNW,283,2.0,4.0,91,0.00,,,0.01,Wunderground v.1.15,2013-12-30 06:41:00,
2013-12-30 01:46:00,34.1,31.7,29.39,South,174,1.0,1.0,91,0.00,,,0.01,Wunderground v.1.15,2013-12-30 06:46:00,
2013-12-30 01:51:00,34.0,31.6,29.40,NW,318,2.0,2.0,91,0.00,,,0.01,Wunderground v.1.15,2013-12-30 06:51:00,
2013-12-30 01:56:00,33.9,31.8,29.41,SW,215,2.0,4.0,92,0.00,,,0.01,Wunderground v.1.15,2013-12-30 06:56:00,
2013-12-30 02:01:00,33.4,31.1,29.42,East,92,2.0,5.0,91,0.00,,,0.01,Wunderground v.1.15,2013-12-30 07:01:00,
2013-12-30 02:06:00,32.2,29.9,29.42,ESE,103,5.0,7.0,91,0.00,,,0.01,Wunderground v.1.15,2013-12-30 07:06:00,
2013-12-30 02:11:00,31.2,29.1,29.42,ENE,76,5.0,7.0,92,0.00,,,0.01,Wunderground v.1.15,2013-12-30 07:11:00,
2013-12-30 02:16:00,30.7,28.9,29.43,East,86,3.0,7.0,93,0.00,,,0.01,Wunderground v.1.15,2013-12-30 07:16:00,
2013-12-30 02:21:00,30.4,28.6,29.43,East,90,3.0,7.0,93,0.00,,,0.01,Wunderground v.1.15,2013-12-30 07:21:00,
2013-12-30 02:26:00,30.1,28.3,29.43,ESE,119,3.0,3.0,93,0.00,,,0.01,Wunderground v.1.15,2013-12-30 07:26:00,
2013-12-30 02:31:00,29.9,28.1,29.44,ENE,60,2.0,9.0,93,0.00,,,0.01,Wunderground v.1.15,2013-12-30 07:31:00,
2013-12-30 02:36:00,29.6,28.1,29.44,East,93,2.0,2.0,94,0.00,,,0.01,Wunderground v.1.15,2013-12-30 07:36:00,
2013-12-30 02:41:00,29.2,27.4,29.44,East,98,3.0,3.0,93,0.00,,,0.01,Wunderground v.1.15,2013-12-30 07:41:00,
2013-12-30 02:46:00,28.7,26.9,29.45,ESE,109,4.0,5.0,93,0.00,,,0.02,Wunderground v.1.15,2013-12-30 07:46:00,
2013-12-30 02:51:00,28.3,26.5,29.45,East,100,4.0,5.0,93,0.00,,,0.02,Wunderground v.1.15,2013-12-30 07:51:00,
2013-12-30 02:56:00,27.9,26.1,29.46,NNW,329,4.0,4.0,93,0.00,,,0.02,Wunderground v.1.15,2013-12-30 07:56:00,
2013-12-30 03:01:00,27.6,25.8,29.46,NE,51,3.0,6.0,93,0.00,,,0.02,Wunderground v.1.15,2013-12-30 08:01:00,
2013-12-30 03:06:00,27.3,25.8,29.46,WSW,239,3.0,4.0,94,0.00,,,0.02,Wunderground v.1.15,2013-12-30 08:06:00,
2013-12-30 03:11:00,27.2,25.7,29.46,East,80,4.0,11.0,94,0.00,,,0.02,Wunderground v.1.15,2013-12-30 08:11:00,
2013-12-30 03:16:00,26.9,25.1,29.46,East,81,4.0,4.0,93,0.00,,,0.02,Wunderground v.1.15,2013-12-30 08:16:00,
2013-12-30 03:21:00,26.7,25.2,29.47,East,97,3.0,4.0,94,0.00,,,0.02,Wunderground v.1.15,2013-12-30 08:21:00,
2013-12-30 03:26:00,26.6,25.1,29.47,ENE,77,3.0,3.0,94,0.00,,,0.02,Wunderground v.1.15,2013-12-30 08:26:00,
2013-12-30 03:31:00,26.4,24.7,29.47,ESE,102,3.0,5.0,93,0.00,,,0.02,Wunderground v.1.15,2013-12-30 08:31:00,
2013-12-30 03:36:00,26.2,24.5,29.47,NE,48,3.0,3.0,93,0.00,,,0.02,Wunderground v.1.15,2013-12-30 08:36:00,
2013-12-30 03:41:00,26.0,24.3,29.48,East,87,3.0,4.0,93,0.00,,,0.02,Wunderground v.1.15,2013-12-30 08:41:00,
2013-12-30 03:46:00,25.8,24.1,29.48,East,81,3.0,5.0,93,0.00,,,0.02,Wunderground v.1.15,2013-12-30 08:46:00,
2013-12-30 03:51:00,25.8,24.1,29.48,NE,34,3.0,5.0,93,0.00,,,0.02,Wunderground v.1.15,2013-12-30 08:51:00,
2013-12-30 03:56:00,25.6,23.9,29.49,WNW,302,3.0,7.0,93,0.00,,,0.02,Wunderground v.1.15,2013-12-30 08:56:00,
2013-12-30 04:01:00,25.4,23.7,29.49,East,96,4.0,7.0,93,0.00,,,0.02,Wunderground v.1.15,2013-12-30 09:01:00,
2013-12-30 04:06:00,25.3,23.3,29.49,SSW,202,4.0,4.0,92,0.00,,,0.02,Wunderground v.1.15,2013-12-30 09:06:00,
2013-12-30 04:11:00,25.3,23.3,29.49,ENE,63,2.0,4.0,92,0.00,,,0.02,Wunderground v.1.15,2013-12-30 09:11:00,
2013-12-30 04:16:00,25.1,23.1,29.49,NNW,331,2.0,4.0,92,0.00,,,0.02,Wunderground v.1.15,2013-12-30 09:16:00,
2013-12-30 04:21:00,25.0,23.0,29.50,ENE,67,3.0,4.0,92,0.00,,,0.02,Wunderground v.1.15,2013-12-30 09:21:00,
2013-12-30 04:26:00,24.9,22.9,29.50,East,82,2.0,2.0,92,0.00,,,0.02,Wunderground v.1.15,2013-12-30 09:26:00,
2013-12-30 04:31:00,24.8,22.8,29.50,East,84,2.0,4.0,92,0.00,,,0.02,Wunderground v.1.15,2013-12-30 09:31:00,
2013-12-30 04:36:00,24.6,22.6,29.51,South,171,3.0,4.0,92,0.00,,,0.02,Wunderground v.1.15,2013-12-30 09:36:00,
2013-12-30 04:41:00,24.5,22.5,29.51,East,86,3.0,5.0,92,0.00,,,0.02,Wunderground v.1.15,2013-12-30 09:41:00,
2013-12-30 04:51:00,24.2,22.5,29.52,ESE,103,4.0,8.0,93,0.00,,,0.02,Wunderground v.1.15,2013-12-30 09:51:00,
2013-12-30 04:56:00,24.1,22.4,29.53,SSE,149,3.0,4.0,93,0.00,,,0.02,Wunderground v.1.15,2013-12-30 09:56:00,
2013-12-30 05:01:00,24.1,22.4,29.52,NE,49,3.0,4.0,93,0.00,,,0.02,Wunderground v.1.15,2013-12-30 10:01:00,
2013-12-30 05:06:00,24.0,22.3,29.53,WSW,253,3.0,4.0,93,0.00,,,0.02,Wunderground v.1.15,2013-12-30 10:06:00,
2013-12-30 05:11:00,23.9,22.2,29.53,East,98,3.0,4.0,93,0.00,,,0.02,Wunderground v.1.15,2013-12-30 10:11:00,
2013-12-30 05:16:00,23.8,22.1,29.54,NE,41,3.0,8.0,93,0.00,,,0.02,Wunderground v.1.15,2013-12-30 10:16:00,
2013-12-30 05:21:00,23.7,22.0,29.54,ENE,75,3.0,8.0,93,0.00,,,0.02,Wunderground v.1.15,2013-12-30 10:21:00,
2013-12-30 05:26:00,23.6,21.9,29.55,ESE,108,4.0,4.0,93,0.00,,,0.02,Wunderground v.1.15,2013-12-30 10:26:00,
2013-12-30 05:31:00,23.6,21.9,29.55,SE,136,3.0,4.0,93,0.00,,,0.02,Wunderground v.1.15,2013-12-30 10:31:00,
2013-12-30 05:36:00,23.5,21.8,29.55,East,80,3.0,7.0,93,0.00,,,0.02,Wunderground v.1.15,2013-12-30 10:36:00,
2013-12-30 05:41:00,23.4,21.7,29.56,NNW,346,2.0,7.0,93,0.00,,,0.02,Wunderground v.1.15,2013-12-30 10:41:00,
2013-12-30 05:46:00,23.3,21.6,29.56,SSW,211,2.0,4.0,93,0.00,,,0.02,Wunderground v.1.15,2013-12-30 10:46:00,
2013-12-30 05:51:00,22.9,20.9,29.56,South,181,2.0,4.0,92,0.00,,,0.02,Wunderground v.1.15,2013-12-30 10:51:00,
2013-12-30 05:56:00,22.7,20.7,29.57,East,86,3.0,3.0,92,0.00,,,0.02,Wunderground v.1.15,2013-12-30 10:56:00,
2013-12-30 06:01:00,22.5,20.3,29.57,East,98,3.0,4.0,91,0.00,,,0.02,Wunderground v.1.15,2013-12-30 11:01:00,
2013-12-30 06:06:00,22.4,20.2,29.58,NE,45,2.0,5.0,91,0.00,,,0.02,Wunderground v.1.15,2013-12-30 11:06:00,
2013-12-30 06:11:00,22.2,19.7,29.58,NE,54,3.0,5.0,90,0.00,,,0.02,Wunderground v.1.15,2013-12-30 11:11:00,
2013-12-30 06:16:00,22.1,19.6,29.59,ENE,63,3.0,4.0,90,0.00,,,0.02,Wunderground v.1.15,2013-12-30 11:16:00,
2013-12-30 06:21:00,21.9,19.4,29.59,SE,142,4.0,4.0,90,0.00,,,0.02,Wunderground v.1.15,2013-12-30 11:21:00,
2013-12-30 06:26:00,21.7,19.2,29.59,East,97,4.0,5.0,90,0.00,,,0.02,Wunderground v.1.15,2013-12-30 11:26:00,
2013-12-30 06:31:00,21.5,19.0,29.60,ENE,76,3.0,5.0,90,0.00,,,0.02,Wunderground v.1.15,2013-12-30 11:31:00,
2013-12-30 06:36:00,21.3,18.6,29.60,ENE,76,3.0,3.0,89,0.00,,,0.02,Wunderground v.1.15,2013-12-30 11:36:00,
2013-12-30 06:41:00,21.3,18.6,29.61,NE,38,3.0,4.0,89,0.00,,,0.02,Wunderground v.1.15,2013-12-30 11:41:00,
2013-12-30 06:46:00,21.0,18.3,29.61,ENE,77,3.0,8.0,89,0.00,,,0.02,Wunderground v.1.15,2013-12-30 11:46:00,
2013-12-30 06:51:00,20.7,18.0,29.62,East,81,3.0,8.0,89,0.00,,,0.02,Wunderground v.1.15,2013-12-30 11:51:00,
2013-12-30 06:56:00,20.7,18.0,29.63,East,94,3.0,4.0,89,0.00,,,0.02,Wunderground v.1.15,2013-12-30 11:56:00,
2013-12-30 07:01:00,20.2,17.5,29.63,ESE,116,4.0,4.0,89,0.00,,,0.02,Wunderground v.1.15,2013-12-30 12:01:00,
2013-12-30 07:06:00,19.6,17.1,29.64,East,98,4.0,4.0,90,0.00,,,0.02,Wunderground v.1.15,2013-12-30 12:06:00,
2013-12-30 07:11:00,19.2,16.7,29.65,NW,321,3.0,4.0,90,0.00,,,0.02,Wunderground v.1.15,2013-12-30 12:11:00,
2013-12-30 07:16:00,18.8,16.4,29.65,ENE,78,4.0,4.0,90,0.00,,,0.02,Wunderground v.1.15,2013-12-30 12:16:00,
2013-12-30 07:21:00,18.5,16.1,29.66,SE,144,5.0,5.0,90,0.00,,,0.02,Wunderground v.1.15,2013-12-30 12:21:00,
2013-12-30 07:26:00,18.3,15.9,29.66,East,93,4.0,5.0,90,0.00,,,0.02,Wunderground v.1.15,2013-12-30 12:26:00,
2013-12-30 07:31:00,18.2,16.0,29.67,East,90,3.0,5.0,91,0.00,,,0.02,Wunderground v.1.15,2013-12-30 12:31:00,
2013-12-30 07:36:00,18.1,15.9,29.67,East,94,2.0,7.0,91,0.00,,,0.02,Wunderground v.1.15,2013-12-30 12:36:00,
2013-12-30 07:41:00,17.8,15.4,29.67,ESE,121,4.0,7.0,90,0.00,,,0.02,Wunderground v.1.15,2013-12-30 12:41:00,
2013-12-30 07:46:00,17.6,15.2,29.68,ENE,59,4.0,4.0,90,0.00,,,0.02,Wunderground v.1.15,2013-12-30 12:46:00,
2013-12-30 07:51:00,17.5,15.1,29.68,ENE,66,2.0,5.0,90,0.00,,,0.02,Wunderground v.1.15,2013-12-30 12:51:00,
2013-12-30 07:56:00,17.4,15.2,29.68,SW,216,2.0,2.0,91,0.00,,,0.02,Wunderground v.1.15,2013-12-30 12:56:00,
2013-12-30 08:01:00,17.3,15.1,29.69,ENE,68,2.0,4.0,91,0.00,,,0.02,Wunderground v.1.15,2013-12-30 13:01:00,
2013-12-30 08:06:00,17.2,15.0,29.69,NE,49,2.0,4.0,91,0.00,,,0.02,Wunderground v.1.15,2013-12-30 13:06:00,
2013-12-30 08:11:00,17.1,14.9,29.70,ESE,103,3.0,5.0,91,0.00,,,0.02,Wunderground v.1.15,2013-12-30 13:11:00,
2013-12-30 08:16:00,17.1,14.9,29.70,East,82,2.0,4.0,91,0.00,,,0.02,Wunderground v.1.15,2013-12-30 13:16:00,
2013-12-30 08:21:00,17.1,14.9,29.70,SSW,213,2.0,4.0,91,0.00,,,0.02,Wunderground v.1.15,2013-12-30 13:21:00,
2013-12-30 08:26:00,17.0,14.8,29.70,East,91,2.0,8.0,91,0.00,,,0.02,Wunderground v.1.15,2013-12-30 13:26:00,
2013-12-30 08:36:00,16.9,14.7,29.71,NNW,345,2.0,4.0,91,0.00,,,0.02,Wunderground v.1.15,2013-12-30 13:36:00,
2013-12-30 08:41:00,16.8,14.6,29.71,East,99,3.0,8.0,91,0.00,,,0.02,Wunderground v.1.15,2013-12-30 13:41:00,
2013-12-30 08:46:00,16.8,14.6,29.72,NE,34,3.0,3.0,91,0.00,,,0.02,Wunderground v.1.15,2013-12-30 13:46:00,
2013-12-30 08:51:00,16.8,14.6,29.72,ENE,60,3.0,4.0,91,0.00,,,0.02,Wunderground v.1.15,2013-12-30 13:51:00,
2013-12-30 08:56:00,16.7,14.5,29.72,East,98,2.0,7.0,91,0.00,,,0.02,Wunderground v.1.15,2013-12-30 13:56:00,
2013-12-30 09:01:00,16.7,14.5,29.73,East,84,3.0,7.0,91,0.00,,,0.02,Wunderground v.1.15,2013-12-30 14:01:00,
2013-12-30 09:06:00,16.8,14.6,29.73,East,81,3.0,4.0,91,0.00,,,0.02,Wunderground v.1.15,2013-12-30 14:06:00,
2013-12-30 09:11:00,16.4,14.0,29.73,East,89,3.0,8.0,90,0.00,,,0.02,Wunderground v.1.15,2013-12-30 14:11:00,
2013-12-30 09:16:00,16.1,13.7,29.74,East,93,4.0,5.0,90,0.00,,,0.02,Wunderground v.1.15,2013-12-30 14:16:00,
2013-12-30 09:21:00,15.9,13.7,29.74,East,92,4.0,5.0,91,0.00,,,0.02,Wunderground v.1.15,2013-12-30 14:21:00,
2013-12-30 09:26:00,15.6,13.2,29.74,ESE,104,4.0,5.0,90,0.00,,,0.02,Wunderground v.1.15,2013-12-30 14:26:00,
2013-12-30 09:31:00,15.5,13.1,29.75,ENE,66,4.0,5.0,90,0.00,,,0.02,Wunderground v.1.15,2013-12-30 14:31:00,
2013-12-30 09:36:00,15.4,13.0,29.75,ENE,73,3.0,3.0,90,0.00,,,0.02,Wunderground v.1.15,2013-12-30 14:36:00,
2013-12-30 09:41:00,15.5,13.1,29.75,East,90,4.0,4.0,90,0.00,,,0.02,Wunderground v.1.15,2013-12-30 14:41:00,
2013-12-30 09:46:00,15.5,13.1,29.75,ENE,78,4.0,4.0,90,0.00,,,0.02,Wunderground v.1.15,2013-12-30 14:46:00,
2013-12-30 09:51:00,15.6,13.2,29.76,East,82,3.0,9.0,90,0.00,,,0.02,Wunderground v.1.15,2013-12-30 14:51:00,
2013-12-30 09:56:00,15.6,13.2,29.76,ENE,65,3.0,4.0,90,0.00,,,0.02,Wunderground v.1.15,2013-12-30 14:56:00,
2013-12-30 10:01:00,15.7,13.5,29.75,ENE,71,3.0,4.0,91,0.00,,,0.02,Wunderground v.1.15,2013-12-30 15:01:00,
2013-12-30 10:06:00,15.8,13.4,29.76,East,82,3.0,5.0,90,0.00,,,0.02,Wunderground v.1.15,2013-12-30 15:06:00,
2013-12-30 10:11:00,15.8,13.4,29.76,NE,55,3.0,5.0,90,0.00,,,0.02,Wunderground v.1.15,2013-12-30 15:11:00,
2013-12-30 10:16:00,15.7,13.0,29.76,NNW,341,3.0,3.0,89,0.00,,,0.02,Wunderground v.1.15,2013-12-30 15:16:00,
2013-12-30 10:21:00,15.9,13.2,29.76,South,189,4.0,4.0,89,0.00,,,0.02,Wunderground v.1.15,2013-12-30 15:21:00,
2013-12-30 10:26:00,16.0,13.1,29.76,East,91,4.0,7.0,88,0.00,,,0.02,Wunderground v.1.15,2013-12-30 15:26:00,
2013-12-30 10:31:00,16.3,13.4,29.77,East,94,3.0,7.0,88,0.00,,,0.02,Wunderground v.1.15,2013-12-30 15:31:00,
2013-12-30 10:36:00,16.2,13.0,29.77,ENE,76,3.0,7.0,87,0.00,,,0.02,Wunderground v.1.15,2013-12-30 15:36:00,
2013-12-30 10:46:00,16.1,12.7,29.77,ENE,74,4.0,4.0,86,0.00,,,0.02,Wunderground v.1.15,2013-12-30 15:46:00,
2013-12-30 10:51:00,16.5,13.0,29.77,East,94,3.0,4.0,86,0.00,,,0.02,Wunderground v.1.15,2013-12-30 15:51:00,
2013-12-30 10:56:00,17.0,13.5,29.78,ENE,74,2.0,2.0,86,0.00,,,0.02,Wunderground v.1.15,2013-12-30 15:56:00,
2013-12-30 11:01:00,17.3,13.6,29.78,East,92,2.0,4.0,85,0.00,,,0.02,Wunderground v.1.15,2013-12-30 16:01:00,
2013-12-30 11:06:00,17.6,13.6,29.77,East,94,2.0,8.0,84,0.00,,,0.02,Wunderground v.1.15,2013-12-30 16:06:00,
2013-12-30 11:11:00,17.3,13.0,29.77,ENE,78,2.0,8.0,83,0.00,,,0.02,Wunderground v.1.15,2013-12-30 16:11:00,
2013-12-30 11:16:00,16.9,13.2,29.77,NE,37,2.0,2.0,85,0.00,,,0.02,Wunderground v.1.15,2013-12-30 16:16:00,
2013-12-30 11:21:00,16.7,13.0,29.77,ESE,103,2.0,4.0,85,0.00,,,0.02,Wunderground v.1.15,2013-12-30 16:21:00,
2013-12-30 11:26:00,17.0,13.3,29.76,ESE,111,2.0,4.0,85,0.00,,,0.02,Wunderground v.1.15,2013-12-30 16:26:00,
2013-12-30 11:31:00,17.2,12.9,29.76,ENE,71,3.0,4.0,83,0.00,,,0.02,Wunderground v.1.15,2013-12-30 16:31:00,
2013-12-30 11:36:00,17.1,12.6,29.76,NW,316,5.0,5.0,82,0.00,,,0.02,Wunderground v.1.15,2013-12-30 16:36:00,
2013-12-30 11:41:00,17.2,12.6,29.77,ENE,73,4.0,5.0,82,0.00,,,0.02,Wunderground v.1.15,2013-12-30 16:41:00,
2013-12-30 11:46:00,17.1,12.3,29.77,East,98,4.0,6.0,81,0.00,,,0.02,Wunderground v.1.15,2013-12-30 16:46:00,
2013-12-30 11:51:00,17.0,12.5,29.77,NE,42,4.0,6.0,82,0.00,,,0.02,Wunderground v.1.15,2013-12-30 16:51:00,
2013-12-30 11:56:00,16.4,11.9,29.77,ENE,73,3.0,5.0,82,0.00,,,0.02,Wunderground v.1.15,2013-12-30 16:56:00,
2013-12-30 12:01:00,16.0,12.0,29.76,ENE,72,3.0,7.0,84,0.00,,,0.02,Wunderground v.1.15,2013-12-30 17:01:00,
2013-12-30 12:06:00,15.9,11.9,29.77,ENE,78,3.0,15.0,84,0.00,,,0.02,Wunderground v.1.15,2013-12-30 17:06:00,
2013-12-30 12:11:00,16.1,11.6,29.77,NNE,22,4.0,15.0,82,0.00,,,0.02,Wunderground v.1.15,2013-12-30 17:11:00,
2013-12-30 12:16:00,16.4,11.9,29.77,SW,234,3.0,3.0,82,0.00,,,0.02,Wunderground v.1.15,2013-12-30 17:16:00,
2013-12-30 12:21:00,16.6,12.1,29.78,NE,52,2.0,4.0,82,0.00,,,0.02,Wunderground v.1.15,2013-12-30 17:21:00,
2013-12-30 12:26:00,16.5,11.7,29.78,ENE,63,2.0,4.0,81,0.00,,,0.02,Wunderground v.1.15,2013-12-30 17:26:00,
2013-12-30 12:31:00,16.3,11.5,29.78,ENE,78,3.0,5.0,81,0.00,,,0.02,Wunderground v.1.15,2013-12-30 17:31:00,
2013-12-30 12:36:00,16.1,11.3,29.78,ENE,76,3.0,3.0,81,0.00,,,0.02,Wunderground v.1.15,2013-12-30 17:36:00,
2013-12-30 12:41:00,16.3,11.5,29.79,ENE,78,3.0,4.0,81,0.00,,,0.02,Wunderground v.1.15,2013-12-30 17:41:00,
2013-12-30 12:46:00,16.2,11.1,29.79,East,97,4.0,7.0,80,0.00,,,0.02,Wunderground v.1.15,2013-12-30 17:46:00,
2013-12-30 12:56:00,16.1,11.0,29.79,SSE,152,3.0,3.0,80,0.00,,,0.02,Wunderground v.1.15,2013-12-30 17:56:00,
2013-12-30 13:01:00,16.5,11.4,29.78,NE,36,2.0,4.0,80,0.00,,,0.02,Wunderground v.1.15,2013-12-30 18:01:00,
2013-12-30 13:06:00,16.6,11.2,29.78,NE,49,3.0,4.0,79,0.00,,,0.02,Wunderground v.1.15,2013-12-30 18:06:00,
2013-12-30 13:11:00,16.6,10.9,29.78,ENE,71,4.0,8.0,78,0.00,,,0.02,Wunderground v.1.15,2013-12-30 18:11:00,
2013-12-30 13:16:00,17.0,11.0,29.78,East,82,4.0,4.0,77,0.00,,,0.02,Wunderground v.1.15,2013-12-30 18:16:00,
2013-12-30 13:26:00,17.3,12.2,29.79,East,81,3.0,3.0,80,0.00,,,0.02,Wunderground v.1.15,2013-12-30 18:26:00,
2013-12-30 13:31:00,16.4,11.6,29.79,ENE,64,3.0,4.0,81,0.00,,,0.02,Wunderground v.1.15,2013-12-30 18:31:00,
2013-12-30 13:36:00,15.7,11.5,29.79,East,90,3.0,3.0,83,0.00,,,0.02,Wunderground v.1.15,2013-12-30 18:36:00,
2013-12-30 13:41:00,15.4,11.4,29.80,ENE,65,2.0,4.0,84,0.00,,,0.02,Wunderground v.1.15,2013-12-30 18:41:00,
2013-12-30 13:46:00,15.3,11.6,29.80,SW,215,2.0,2.0,85,0.00,,,0.02,Wunderground v.1.15,2013-12-30 18:46:00,
2013-12-30 13:51:00,15.4,11.4,29.80,NE,44,2.0,4.0,84,0.00,,,0.02,Wunderground v.1.15,2013-12-30 18:51:00,
2013-12-30 14:01:00,15.5,11.3,29.81,East,79,3.0,3.0,83,0.00,,,0.02,Wunderground v.1.15,2013-12-30 19:01:00,
2013-12-30 14:06:00,15.5,11.5,29.81,ENE,76,2.0,4.0,84,0.00,,,0.02,Wunderground v.1.15,2013-12-30 19:06:00,
2013-12-30 14:11:00,15.3,11.3,29.81,East,93,3.0,6.0,84,0.00,,,0.02,Wunderground v.1.15,2013-12-30 19:11:00,
2013-12-30 14:16:00,15.5,11.5,29.81,East,91,3.0,3.0,84,0.00,,,0.02,Wunderground v.1.15,2013-12-30 19:16:00,
2013-12-30 14:21:00,16.4,12.4,29.80,ESE,119,2.0,4.0,84,0.00,,,0.02,Wunderground v.1.15,2013-12-30 19:21:00,
2013-12-30 14:26:00,15.9,11.4,29.81,East,87,3.0,3.0,82,0.00,,,0.02,Wunderground v.1.15,2013-12-30 19:26:00,
2013-12-30 14:31:00,15.6,11.4,29.80,East,84,3.0,4.0,83,0.00,,,0.02,Wunderground v.1.15,2013-12-30 19:31:00,
2013-12-30 14:36:00,16.1,11.8,29.80,NNE,31,2.0,2.0,83,0.00,,,0.02,Wunderground v.1.15,2013-12-30 19:36:00,
2013-12-30 14:41:00,16.0,10.6,29.81,East,85,3.0,5.0,79,0.00,,,0.02,Wunderground v.1.15,2013-12-30 19:41:00,
2013-12-30 14:46:00,15.8,10.7,29.81,ENE,61,3.0,7.0,80,0.00,,,0.02,Wunderground v.1.15,2013-12-30 19:46:00,
2013-12-30 14:51:00,15.3,10.2,29.82,East,87,3.0,7.0,80,0.00,,,0.02,Wunderground v.1.15,2013-12-30 19:51:00,
2013-12-30 14:56:00,15.2,9.9,29.82,ENE,61,3.0,3.0,79,0.00,,,0.02,Wunderground v.1.15,2013-12-30 19:56:00,
2013-12-30 15:06:00,14.8,8.9,29.82,East,100,3.0,3.0,77,0.00,,,0.02,Wunderground v.1.15,2013-12-30 20:06:00,
2013-12-30 15:11:00,15.0,9.4,29.82,East,99,3.0,4.0,78,0.00,,,0.02,Wunderground v.1.15,2013-12-30 20:11:00,
2013-12-30 15:16:00,15.0,9.4,29.83,ESE,111,2.0,2.0,78,0.00,,,0.02,Wunderground v.1.15,2013-12-30 20:16:00,
2013-12-30 15:21:00,14.7,8.8,29.83,East,82,3.0,3.0,77,0.00,,,0.02,Wunderground v.1.15,2013-12-30 20:21:00,
2013-12-30 15:26:00,14.3,8.1,29.82,ENE,74,3.0,5.0,76,0.00,,,0.02,Wunderground v.1.15,2013-12-30 20:26:00,
2013-12-30 15:31:00,14.0,7.5,29.83,ENE,61,2.0,5.0,75,0.00,,,0.02,Wunderground v.1.15,2013-12-30 20:31:00,
2013-12-30 15:36:00,13.9,7.7,29.83,ESE,108,2.0,2.0,76,0.00,,,0.02,Wunderground v.1.15,2013-12-30 20:36:00,
2013-12-30 15:41:00,13.8,7.6,29.83,ESE,105,1.0,4.0,76,0.00,,,0.02,Wunderground v.1.15,2013-12-30 20:41:00,
2013-12-30 15:46:00,13.7,7.8,29.83,ESE,105,1.0,4.0,77,0.00,,,0.02,Wunderground v.1.15,2013-12-30 20:46:00,
2013-12-30 15:51:00,13.5,7.6,29.83,East,92,1.0,4.0,77,0.00,,,0.02,Wunderground v.1.15,2013-12-30 20:51:00,
2013-12-30 15:56:00,13.4,7.2,29.83,East,92,1.0,1.0,76,0.00,,,0.02,Wunderground v.1.15,2013-12-30 20:56:00,
2013-12-30 16:01:00,13.3,7.4,29.83,East,92,1.0,4.0,77,0.00,,,0.02,Wunderground v.1.15,2013-12-30 21:01:00,
2013-12-30 16:06:00,13.2,7.3,29.83,East,92,0.0,4.0,77,0.00,,,0.02,Wunderground v.1.15,2013-12-30 21:06:00,
2013-12-30 16:11:00,13.1,7.2,29.83,East,92,0.0,4.0,77,0.00,,,0.02,Wunderground v.1.15,2013-12-30 21:11:00,
2013-12-30 16:16:00,13.0,7.1,29.83,East,92,0.0,4.0,77,0.00,,,0.02,Wunderground v.1.15,2013-12-30 21:16:00,
2013-12-30 16:21:00,12.9,7.0,29.83,NE,51,1.0,4.0,77,0.00,,,0.02,Wunderground v.1.15,2013-12-30 21:21:00,
2013-12-30 16:26:00,12.9,7.0,29.83,NW,323,1.0,4.0,77,0.00,,,0.02,Wunderground v.1.15,2013-12-30 21:26:00,
2013-12-30 16:31:00,13.0,7.4,29.83,East,100,1.0,4.0,78,0.00,,,0.02,Wunderground v.1.15,2013-12-30 21:31:00,
2013-12-30 16:36:00,13.0,7.1,29.84,NNW,348,1.0,1.0,77,0.00,,,0.02,Wunderground v.1.15,2013-12-30 21:36:00,
2013-12-30 16:41:00,12.8,6.9,29.84,East,96,1.0,4.0,77,0.00,,,0.02,Wunderground v.1.15,2013-12-30 21:41:00,
2013-12-30 16:46:00,12.6,6.8,29.84,ESE,102,1.0,1.0,77,0.00,,,0.02,Wunderground v.1.15,2013-12-30 21:46:00,
2013-12-30 16:51:00,12.5,6.7,29.84,ESE,102,0.0,4.0,77,0.00,,,0.02,Wunderground v.1.15,2013-12-30 21:51:00,
2013-12-30 16:56:00,12.2,6.4,29.84,ESE,102,0.0,4.0,77,0.00,,,0.02,Wunderground v.1.15,2013-12-30 21:56:00,
2013-12-30 17:01:00,12.1,6.6,29.84,ESE,102,0.0,4.0,78,0.00,,,0.02,Wunderground v.1.15,2013-12-30 22:01:00,
2013-12-30 17:06:00,11.9,6.4,29.84,ESE,102,0.0,4.0,78,0.00,,,0.02,Wunderground v.1.15,2013-12-30 22:06:00,
2013-12-30 17:11:00,11.8,6.5,29.85,ESE,102,0.0,4.0,79,0.00,,,0.02,Wunderground v.1.15,2013-12-30 22:11:00,
2013-12-30 17:16:00,11.7,6.4,29.85,ESE,102,0.0,4.0,79,0.00,,,0.02,Wunderground v.1.15,2013-12-30 22:16:00,
2013-12-30 17:21:00,11.7,6.7,29.85,ESE,102,0.0,4.0,80,0.00,,,0.02,Wunderground v.1.15,2013-12-30 22:21:00,
2013-12-30 17:26:00,11.6,6.6,29.85,East,101,0.0,4.0,80,0.00,,,0.02,Wunderground v.1.15,2013-12-30 22:26:00,
2013-12-30 17:31:00,11.7,6.7,29.85,ESE,113,0.0,4.0,80,0.00,,,0.02,Wunderground v.1.15,2013-12-30 22:31:00,
2013-12-30 17:36:00,11.8,7.1,29.85,East,83,0.0,4.0,81,0.00,,,0.02,Wunderground v.1.15,2013-12-30 22:36:00,
2013-12-30 17:46:00,12.0,7.3,29.85,East,85,0.0,4.0,81,0.00,,,0.02,Wunderground v.1.15,2013-12-30 22:46:00,
2013-12-30 17:51:00,12.0,7.3,29.85,East,83,0.0,4.0,81,0.00,,,0.02,Wunderground v.1.15,2013-12-30 22:51:00,
2013-12-30 17:56:00,11.9,6.9,29.85,East,82,0.0,4.0,80,0.00,,,0.02,Wunderground v.1.15,2013-12-30 22:56:00,
2013-12-30 18:01:00,11.8,6.8,29.86,East,85,0.0,4.0,80,0.00,,,0.02,Wunderground v.1.15,2013-12-30 23:01:00,
2013-12-30 18:06:00,11.6,6.6,29.85,East,85,0.0,4.0,80,0.00,,,0.02,Wunderground v.1.15,2013-12-30 23:06:00,
2013-12-30 18:16:00,11.2,6.5,29.85,East,86,0.0,4.0,81,0.00,,,0.02,Wunderground v.1.15,2013-12-30 23:16:00,
2013-12-30 18:21:00,11.1,6.4,29.85,East,86,0.0,4.0,81,0.00,,,0.02,Wunderground v.1.15,2013-12-30 23:21:00,
2013-12-30 18:26:00,11.0,6.3,29.85,East,86,0.0,4.0,81,0.00,,,0.02,Wunderground v.1.15,2013-12-30 23:26:00,
2013-12-30 18:31:00,11.0,6.3,29.85,East,86,0.0,4.0,81,0.00,,,0.02,Wunderground v.1.15,2013-12-30 23:31:00,
2013-12-30 18:36:00,10.8,6.1,29.85,East,86,0.0,4.0,81,0.00,,,0.02,Wunderground v.1.15,2013-12-30 23:36:00,
2013-12-30 18:41:00,10.7,6.0,29.85,East,86,0.0,4.0,81,0.00,,,0.02,Wunderground v.1.15,2013-12-30 23:41:00,
2013-12-30 18:46:00,10.7,6.0,29.85,East,86,0.0,4.0,81,0.00,,,0.02,Wunderground v.1.15,2013-12-30 23:46:00,
2013-12-30 18:51:00,10.6,6.2,29.85,East,86,0.0,4.0,82,0.00,,,0.02,Wunderground v.1.15,2013-12-30 23:51:00,
2013-12-30 18:56:00,10.5,6.1,29.85,East,86,0.0,4.0,82,0.00,,,0.02,Wunderground v.1.15,2013-12-30 23:56:00,
2013-12-30 19:01:00,10.5,6.1,29.84,East,86,0.0,4.0,82,0.00,,,0.02,Wunderground v.1.15,2013-12-31 00:01:00,
2013-12-30 19:06:00,10.3,5.6,29.84,East,86,0.0,4.0,81,0.00,,,0.02,Wunderground v.1.15,2013-12-31 00:06:00,
2013-12-30 19:11:00,10.0,5.6,29.84,East,86,0.0,4.0,82,0.00,,,0.02,Wunderground v.1.15,2013-12-31 00:11:00,
2013-12-30 19:16:00,9.8,5.7,29.84,East,86,0.0,4.0,83,0.00,,,0.02,Wunderground v.1.15,2013-12-31 00:16:00,
2013-12-30 19:21:00,9.6,5.2,29.84,East,86,0.0,4.0,82,0.00,,,0.02,Wunderground v.1.15,2013-12-31 00:21:00,
2013-12-30 19:26:00,9.5,5.4,29.84,East,86,0.0,4.0,83,0.00,,,0.02,Wunderground v.1.15,2013-12-31 00:26:00,
2013-12-30 19:31:00,9.5,5.6,29.85,East,86,0.0,4.0,84,0.00,,,0.02,Wunderground v.1.15,2013-12-31 00:31:00,
2013-12-30 19:36:00,9.5,5.6,29.85,East,86,0.0,4.0,84,0.00,,,0.02,Wunderground v.1.15,2013-12-31 00:36:00,
2013-12-30 19:41:00,9.5,5.6,29.85,East,86,0.0,4.0,84,0.00,,,0.02,Wunderground v.1.15,2013-12-31 00:41:00,
2013-12-30 19:46:00,9.4,5.5,29.85,East,86,0.0,4.0,84,0.00,,,0.02,Wunderground v.1.15,2013-12-31 00:46:00,
2013-12-30 19:51:00,9.4,5.5,29.86,East,86,0.0,4.0,84,0.00,,,0.02,Wunderground v.1.15,2013-12-31 00:51:00,
2013-12-30 19:56:00,9.6,6.0,29.86,East,86,0.0,4.0,85,0.00,,,0.02,Wunderground v.1.15,2013-12-31 00:56:00,
2013-12-30 20:01:00,9.5,5.9,29.86,East,86,0.0,4.0,85,0.00,,,0.02,Wunderground v.1.15,2013-12-31 01:01:00,
2013-12-30 20:06:00,9.6,6.0,29.86,East,86,0.0,4.0,85,0.00,,,0.02,Wunderground v.1.15,2013-12-31 01:06:00,
2013-12-30 20:11:00,9.6,6.0,29.85,East,86,0.0,4.0,85,0.00,,,0.02,Wunderground v.1.15,2013-12-31 01:11:00,
2013-12-30 20:16:00,9.8,6.2,29.86,East,86,0.0,4.0,85,0.00,,,0.02,Wunderground v.1.15,2013-12-31 01:16:00,
2013-12-30 20:21:00,9.9,6.3,29.86,East,86,0.0,4.0,85,0.00,,,0.02,Wunderground v.1.15,2013-12-31 01:21:00,
2013-12-30 20:26:00,9.8,6.2,29.86,East,86,0.0,4.0,85,0.00,,,0.02,Wunderground v.1.15,2013-12-31 01:26:00,
2013-12-30 20:31:00,9.8,6.2,29.85,East,86,0.0,4.0,85,0.00,,,0.02,Wunderground v.1.15,2013-12-31 01:31:00,
2013-12-30 20:36:00,9.6,6.0,29.85,East,86,0.0,4.0,85,0.00,,,0.02,Wunderground v.1.15,2013-12-31 01:36:00,
2013-12-30 20:41:00,9.5,5.9,29.86,East,86,0.0,4.0,85,0.00,,,0.02,Wunderground v.1.15,2013-12-31 01:41:00,
2013-12-30 20:46:00,9.5,6.2,29.86,East,86,0.0,4.0,86,0.00,,,0.02,Wunderground v.1.15,2013-12-31 01:46:00,
2013-12-30 20:51:00,9.5,6.2,29.86,East,86,0.0,4.0,86,0.00,,,0.02,Wunderground v.1.15,2013-12-31 01:51:00,
2013-12-30 20:56:00,9.5,6.2,29.86,East,86,0.0,4.0,86,0.00,,,0.02,Wunderground v.1.15,2013-12-31 01:56:00,
2013-12-30 21:01:00,9.5,6.2,29.86,East,86,0.0,4.0,86,0.00,,,0.02,Wunderground v.1.15,2013-12-31 02:01:00,
2013-12-30 21:06:00,9.5,6.2,29.86,East,86,0.0,4.0,86,0.00,,,0.02,Wunderground v.1.15,2013-12-31 02:06:00,
2013-12-30 21:11:00,9.3,6.0,29.86,East,86,0.0,4.0,86,0.00,,,0.02,Wunderground v.1.15,2013-12-31 02:11:00,
2013-12-30 21:16:00,9.2,5.9,29.86,East,86,0.0,4.0,86,0.00,,,0.02,Wunderground v.1.15,2013-12-31 02:16:00,
2013-12-30 21:21:00,9.2,5.9,29.87,East,86,0.0,4.0,86,0.00,,,0.02,Wunderground v.1.15,2013-12-31 02:21:00,
2013-12-30 21:26:00,9.1,5.8,29.86,East,86,0.0,4.0,86,0.00,,,0.02,Wunderground v.1.15,2013-12-31 02:26:00,
2013-12-30 21:31:00,9.1,6.0,29.87,East,86,0.0,4.0,87,0.00,,,0.02,Wunderground v.1.15,2013-12-31 02:31:00,
2013-12-30 21:36:00,9.2,6.1,29.86,East,86,0.0,4.0,87,0.00,,,0.02,Wunderground v.1.15,2013-12-31 02:36:00,
2013-12-30 21:41:00,9.3,6.2,29.86,East,86,0.0,4.0,87,0.00,,,0.02,Wunderground v.1.15,2013-12-31 02:41:00,
2013-12-30 21:46:00,9.4,6.6,29.86,East,86,0.0,4.0,88,0.00,,,0.02,Wunderground v.1.15,2013-12-31 02:46:00,
2013-12-30 21:51:00,9.5,6.7,29.87,East,86,0.0,4.0,88,0.00,,,0.02,Wunderground v.1.15,2013-12-31 02:51:00,
2013-12-30 21:56:00,9.5,6.4,29.87,East,86,0.0,4.0,87,0.00,,,0.02,Wunderground v.1.15,2013-12-31 02:56:00,
2013-12-30 22:01:00,9.5,6.7,29.87,East,86,0.0,4.0,88,0.00,,,0.02,Wunderground v.1.15,2013-12-31 03:01:00,
2013-12-30 22:06:00,9.5,6.7,29.86,East,86,0.0,4.0,88,0.00,,,0.02,Wunderground v.1.15,2013-12-31 03:06:00,
2013-12-30 22:11:00,9.5,6.7,29.86,East,86,0.0,4.0,88,0.00,,,0.02,Wunderground v.1.15,2013-12-31 03:11:00,
2013-12-30 22:16:00,9.4,6.6,29.87,East,86,0.0,4.0,88,0.00,,,0.02,Wunderground v.1.15,2013-12-31 03:16:00,
2013-12-30 22:21:00,9.3,6.2,29.86,East,86,0.0,4.0,87,0.00,,,0.02,Wunderground v.1.15,2013-12-31 03:21:00,
2013-12-30 22:26:00,9.2,6.1,29.86,East,86,0.0,4.0,87,0.00,,,0.02,Wunderground v.1.15,2013-12-31 03:26:00,
2013-12-30 22:36:00,9.0,6.2,29.86,East,86,0.0,4.0,88,0.00,,,0.02,Wunderground v.1.15,2013-12-31 03:36:00,
2013-12-30 22:41:00,9.0,6.2,29.86,East,86,0.0,4.0,88,0.00,,,0.02,Wunderground v.1.15,2013-12-31 03:41:00,
2013-12-30 22:46:00,8.9,6.1,29.86,East,86,0.0,4.0,88,0.00,,,0.02,Wunderground v.1.15,2013-12-31 03:46:00,
2013-12-30 22:51:00,8.7,5.9,29.85,East,86,0.0,4.0,88,0.00,,,0.02,Wunderground v.1.15,2013-12-31 03:51:00,
2013-12-30 22:56:00,8.5,5.7,29.86,East,86,0.0,4.0,88,0.00,,,0.02,Wunderground v.1.15,2013-12-31 03:56:00,
2013-12-30 23:01:00,8.5,5.9,29.86,East,86,0.0,4.0,89,0.00,,,0.02,Wunderground v.1.15,2013-12-31 04:01:00,
2013-12-30 23:06:00,8.5,5.9,29.85,East,86,0.0,4.0,89,0.00,,,0.02,Wunderground v.1.15,2013-12-31 04:06:00,
2013-12-30 23:11:00,8.6,6.0,29.85,East,86,0.0,4.0,89,0.00,,,0.02,Wunderground v.1.15,2013-12-31 04:11:00,
2013-12-30 23:16:00,8.6,6.0,29.85,East,86,0.0,4.0,89,0.00,,,0.02,Wunderground v.1.15,2013-12-31 04:16:00,
2013-12-30 23:21:00,8.7,6.1,29.85,East,86,0.0,4.0,89,0.00,,,0.02,Wunderground v.1.15,2013-12-31 04:21:00,
2013-12-30 23:26:00,8.8,6.2,29.85,East,86,0.0,4.0,89,0.00,,,0.02,Wunderground v.1.15,2013-12-31 04:26:00,
2013-12-30 23:31:00,8.8,6.2,29.85,East,86,0.0,4.0,89,0.00,,,0.02,Wunderground v.1.15,2013-12-31 04:31:00,
2013-12-30 23:36:00,8.9,6.3,29.85,East,86,0.0,4.0,89,0.00,,,0.02,Wunderground v.1.15,2013-12-31 04:36:00,
2013-12-30 23:41:00,9.0,6.4,29.85,East,86,0.0,4.0,89,0.00,,,0.02,Wunderground v.1.15,2013-12-31 04:41:00,
2013-12-30 23:46:00,9.0,6.4,29.85,East,86,0.0,4.0,89,0.00,,,0.02,Wunderground v.1.15,2013-12-31 04:46:00,
2013-12-30 23:51:00,9.0,6.4,29.85,East,86,0.0,4.0,89,0.00,,,0.02,Wunderground v.1.15,2013-12-31 04:51:00,
2013-12-30 23:56:00,9.0,6.4,29.85,East,86,0.0,4.0,89,0.00,,,0.02,Wunderground v.1.15,2013-12-31 04:56:00,